Time;durP1;ratioP1;P1;durP2;ratioP2;P2;SDS_P1;SDS_P2;PMS_P1;PMS_P2;Temp;Humidity;BMP_temperature;BMP_pressure;BME280_temperature;BME280_humidity;BME280_pressure;Samples;Min_cycle;Max_cycle;Signal;HPM_P1;HPM_P2
2021/08/31 00:00:07;;;;;;;14.30;8.30;;;;;;;12.96;100.00;101135.47;5053114;28;20203;-73
2021/08/31 00:02:32;;;;;;;14.90;8.70;;;;;;;12.97;100.00;101137.19;5052016;28;20759;-73
2021/08/31 00:04:58;;;;;;;14.33;9.30;;;;;;;12.98;100.00;101133.56;5052398;28;20297;-72
2021/08/31 00:07:24;;;;;;;10.83;7.80;;;;;;;13.07;100.00;101136.59;5052223;28;20258;-72
2021/08/31 00:09:49;;;;;;;13.03;8.47;;;;;;;13.09;100.00;101139.19;5052621;28;20538;-72
2021/08/31 00:12:14;;;;;;;13.10;8.13;;;;;;;13.15;100.00;101133.44;5052882;28;20532;-72
2021/08/31 00:14:40;;;;;;;15.90;8.13;;;;;;;13.12;100.00;101128.28;5051621;28;20600;-72
2021/08/31 00:17:06;;;;;;;13.40;7.53;;;;;;;13.10;100.00;101117.66;5053016;28;20194;-72
2021/08/31 00:19:32;;;;;;;14.23;7.80;;;;;;;13.07;100.00;101123.19;5051673;28;20182;-72
2021/08/31 00:21:57;;;;;;;12.30;7.83;;;;;;;13.07;100.00;101130.38;5051642;28;20561;-73
2021/08/31 00:24:23;;;;;;;9.70;7.00;;;;;;;13.10;100.00;101127.50;5051627;28;20657;-73
2021/08/31 00:26:48;;;;;;;11.53;7.33;;;;;;;13.10;100.00;101116.78;5052937;28;20634;-72
2021/08/31 00:29:14;;;;;;;12.00;8.13;;;;;;;13.11;100.00;101114.00;5052132;28;20187;-72
2021/08/31 00:31:39;;;;;;;10.30;6.80;;;;;;;13.10;100.00;101117.66;5051861;28;20215;-72
2021/08/31 00:34:04;;;;;;;11.63;7.40;;;;;;;13.06;100.00;101120.59;5051760;28;20188;-73
2021/08/31 00:36:30;;;;;;;12.97;7.87;;;;;;;13.06;100.00;101123.28;5034876;28;20191;-72
2021/08/31 00:38:57;;;;;;;9.87;6.93;;;;;;;13.11;100.00;101113.16;5052989;28;20582;-73
2021/08/31 00:41:22;;;;;;;9.87;7.03;;;;;;;13.03;100.00;101127.00;5035254;28;20198;-73
2021/08/31 00:43:49;;;;;;;10.10;6.77;;;;;;;13.02;100.00;101121.75;5051703;28;20540;-72
2021/08/31 00:46:15;;;;;;;8.63;7.13;;;;;;;13.00;100.00;101131.66;5035465;28;20176;-73
2021/08/31 00:48:45;;;;;;;10.10;7.20;;;;;;;13.03;100.00;101128.81;5051550;28;20179;-72
2021/08/31 00:51:12;;;;;;;13.10;7.20;;;;;;;12.99;100.00;101129.94;5052501;28;20294;-72
2021/08/31 00:53:38;;;;;;;10.00;7.57;;;;;;;12.97;100.00;101126.47;5052266;28;20460;-73
2021/08/31 00:56:04;;;;;;;11.07;7.30;;;;;;;12.94;100.00;101121.28;5068784;28;20210;-72
2021/08/31 00:58:33;;;;;;;12.97;7.77;;;;;;;12.98;100.00;101128.19;5052436;28;20175;-72
2021/08/31 01:00:59;;;;;;;9.67;7.13;;;;;;;12.99;100.00;101124.56;5068985;28;20207;-73
2021/08/31 01:03:26;;;;;;;13.57;7.10;;;;;;;12.98;100.00;101125.53;5054564;28;20172;-72
2021/08/31 01:05:51;;;;;;;11.97;7.63;;;;;;;12.91;100.00;101132.19;5052469;28;20211;-72
2021/08/31 01:08:16;;;;;;;11.50;6.57;;;;;;;12.91;100.00;101119.66;5052348;28;20203;-72
2021/08/31 01:10:42;;;;;;;11.60;7.13;;;;;;;12.92;100.00;101123.19;5052161;28;20705;-72
2021/08/31 01:13:07;;;;;;;14.50;6.73;;;;;;;12.82;100.00;101121.06;5035341;28;20298;-73
2021/08/31 01:15:32;;;;;;;12.30;7.77;;;;;;;12.86;100.00;101123.56;5057442;28;20263;-73
2021/08/31 01:18:11;;;;;;;9.17;6.60;;;;;;;12.92;100.00;101123.19;5056474;28;20553;-72
2021/08/31 01:20:36;;;;;;;11.67;7.60;;;;;;;12.92;100.00;101131.25;5067847;28;20187;-72
2021/08/31 01:25:37;;;;;;;10.40;6.70;;;;;;;13.01;100.00;101128.06;5608289;23;20229;-69
2021/08/31 01:28:04;;;;;;;10.33;6.87;;;;;;;13.03;100.00;101127.00;4979196;28;20700;-69
2021/08/31 01:30:29;;;;;;;9.67;6.70;;;;;;;13.08;100.00;101126.72;4996441;28;20220;-69
2021/08/31 01:32:54;;;;;;;12.00;7.33;;;;;;;13.09;100.00;101133.81;4996959;28;20173;-69
2021/08/31 01:35:20;;;;;;;11.37;6.80;;;;;;;13.12;100.00;101131.81;4996503;28;20204;-69
2021/08/31 01:37:45;;;;;;;10.17;6.60;;;;;;;13.19;100.00;101128.81;5020064;23;20230;-71
2021/08/31 01:40:11;;;;;;;8.83;6.40;;;;;;;13.22;100.00;101125.94;4962737;28;20232;-71
2021/08/31 01:42:36;;;;;;;10.03;6.83;;;;;;;13.17;100.00;101133.38;4962599;28;20284;-71
2021/08/31 01:45:01;;;;;;;12.77;6.13;;;;;;;13.20;100.00;101130.53;4978773;28;20180;-71
2021/08/31 01:47:27;;;;;;;8.10;6.17;;;;;;;13.22;100.00;101123.25;4979229;28;20198;-71
2021/08/31 01:49:52;;;;;;;7.93;5.90;;;;;;;13.20;100.00;101117.13;4995215;28;20628;-72
2021/08/31 01:52:17;;;;;;;9.70;6.90;;;;;;;13.17;100.00;101118.19;4994994;28;20288;-72
2021/08/31 01:54:43;;;;;;;7.40;5.87;;;;;;;13.17;100.00;101128.00;4995429;28;20240;-71
2021/08/31 01:57:08;;;;;;;7.47;5.40;;;;;;;13.20;100.00;101120.66;4994930;28;20553;-72
2021/08/31 01:59:33;;;;;;;9.00;5.37;;;;;;;13.20;100.00;101126.03;4996028;28;20185;-70
2021/08/31 02:01:58;;;;;;;8.03;5.83;;;;;;;13.16;100.00;101127.13;4978630;28;20280;-71
2021/08/31 02:04:24;;;;;;;11.30;6.30;;;;;;;13.17;100.00;101131.56;4994868;28;20189;-71
2021/08/31 02:06:49;;;;;;;8.53;6.30;;;;;;;13.18;100.00;101132.44;4995930;28;20594;-71
2021/08/31 02:09:14;;;;;;;9.67;6.03;;;;;;;13.15;100.00;101138.81;4978269;28;20353;-72
2021/08/31 02:11:40;;;;;;;10.17;6.53;;;;;;;13.18;100.00;101141.34;4995786;28;20193;-71
2021/08/31 02:14:05;;;;;;;9.13;6.13;;;;;;;13.20;100.00;101136.75;4978237;28;20185;-71
2021/08/31 02:16:30;;;;;;;7.20;5.77;;;;;;;13.21;100.00;101129.56;4978195;28;20702;-71
2021/08/31 02:18:56;;;;;;;10.33;6.73;;;;;;;13.15;100.00;101130.78;4977948;28;20201;-71
2021/08/31 02:21:21;;;;;;;9.07;5.77;;;;;;;13.15;100.00;101128.97;4978064;28;20174;-71
2021/08/31 02:23:46;;;;;;;10.40;6.27;;;;;;;13.09;100.00;101141.84;4994292;28;20181;-71
2021/08/31 02:26:11;;;;;;;8.83;6.37;;;;;;;13.14;100.00;101131.72;4994457;28;20228;-71
2021/08/31 02:28:37;;;;;;;10.77;6.70;;;;;;;13.14;100.00;101140.63;4994725;28;20193;-72
2021/08/31 02:31:03;;;;;;;11.90;6.07;;;;;;;13.16;100.00;101132.50;4978656;28;20197;-71
2021/08/31 02:33:28;;;;;;;12.33;6.20;;;;;;;13.16;100.00;101127.13;4994433;28;20182;-71
2021/08/31 02:35:54;;;;;;;9.50;6.43;;;;;;;13.13;100.00;101121.97;4977603;28;20647;-71
2021/08/31 02:38:19;;;;;;;7.67;5.67;;;;;;;13.15;100.00;101117.38;4995210;28;20205;-72
2021/08/31 02:40:44;;;;;;;7.90;5.80;;;;;;;13.14;100.00;101115.66;4994072;28;20216;-72
2021/08/31 02:43:10;;;;;;;8.07;6.03;;;;;;;13.16;100.00;101124.47;4995257;28;20181;-71
2021/08/31 02:45:35;;;;;;;8.10;6.93;;;;;;;13.20;100.00;101127.84;4977666;28;20244;-71
2021/08/31 02:48:00;;;;;;;9.23;6.40;;;;;;;13.14;100.00;101121.00;4994107;28;20201;-71
2021/08/31 02:50:26;;;;;;;9.03;6.47;;;;;;;13.13;100.00;101138.03;4977391;28;20198;-71
2021/08/31 02:52:51;;;;;;;16.90;6.53;;;;;;;13.15;100.00;101130.78;4993779;28;20204;-71
2021/08/31 02:55:16;;;;;;;9.37;6.13;;;;;;;13.20;100.00;101127.84;4977431;28;20662;-72
2021/08/31 02:57:42;;;;;;;10.70;6.80;;;;;;;13.20;100.00;101130.53;4961110;28;20225;-72
2021/08/31 03:00:08;;;;;;;8.83;6.60;;;;;;;13.21;100.00;101133.13;4977396;28;20177;-71
2021/08/31 03:02:34;;;;;;;11.27;6.83;;;;;;;13.18;100.00;101130.63;4977384;28;20185;-71
2021/08/31 03:04:59;;;;;;;9.57;6.23;;;;;;;13.13;100.00;101124.66;4993447;28;20189;-71
2021/08/31 03:07:25;;;;;;;7.63;5.87;;;;;;;13.09;100.00;101123.97;4977104;28;20227;-71
2021/08/31 03:09:50;;;;;;;9.03;6.67;;;;;;;13.10;100.00;101125.69;4977580;28;20178;-71
2021/08/31 03:12:15;;;;;;;11.00;7.23;;;;;;;13.05;100.00;101127.78;4993391;28;20213;-70
2021/08/31 03:14:41;;;;;;;13.40;6.97;;;;;;;13.00;100.00;101128.97;4977157;28;20205;-72
2021/08/31 03:17:08;;;;;;;12.53;7.37;;;;;;;12.99;100.00;101124.56;4994807;28;20205;-72
2021/08/31 03:19:33;;;;;;;10.77;6.60;;;;;;;12.97;100.00;101121.13;4977162;28;20182;-71
2021/08/31 03:22:01;;;;;;;9.60;6.43;;;;;;;12.94;100.00;101126.66;4994458;28;20174;-72
2021/08/31 03:24:27;;;;;;;9.83;7.00;;;;;;;12.94;100.00;101126.66;4977192;28;20224;-72
2021/08/31 03:26:53;;;;;;;7.50;5.87;;;;;;;12.96;100.00;101140.81;4976891;28;20177;-71
2021/08/31 03:29:18;;;;;;;12.57;7.47;;;;;;;12.93;100.00;101135.66;4993307;28;20662;-71
2021/08/31 03:31:44;;;;;;;10.17;6.93;;;;;;;12.95;100.00;101131.91;4977151;28;20205;-71
2021/08/31 03:34:09;;;;;;;8.97;6.87;;;;;;;12.95;100.00;101134.59;4977227;28;20193;-72
2021/08/31 03:36:35;;;;;;;10.70;6.77;;;;;;;12.93;100.00;101131.16;4977237;28;20678;-71
2021/08/31 03:39:00;;;;;;;11.83;7.60;;;;;;;12.94;100.00;101134.69;4976733;28;20205;-71
2021/08/31 03:41:25;;;;;;;12.50;7.07;;;;;;;12.89;100.00;101134.09;4994405;28;20205;-72
2021/08/31 03:43:50;;;;;;;11.13;6.40;;;;;;;12.89;100.00;101134.09;4992862;28;20169;-72
2021/08/31 03:46:16;;;;;;;8.47;6.63;;;;;;;12.86;100.00;101134.28;4976491;28;20232;-70
2021/08/31 03:48:41;;;;;;;18.40;6.97;;;;;;;12.83;100.00;101136.19;4993299;28;20276;-71
2021/08/31 03:51:07;;;;;;;11.67;6.97;;;;;;;12.85;100.00;101136.09;4992591;28;20194;-71
2021/08/31 03:53:32;;;;;;;10.23;6.80;;;;;;;12.84;100.00;101142.41;4993082;28;20173;-71
2021/08/31 03:55:57;;;;;;;9.80;6.10;;;;;;;12.82;100.00;101139.81;4994120;28;20178;-71
2021/08/31 03:58:23;;;;;;;9.97;6.87;;;;;;;12.77;100.00;101147.25;4976526;28;20288;-71
2021/08/31 04:00:48;;;;;;;9.87;6.23;;;;;;;12.78;100.00;101148.97;4960195;28;20646;-71
2021/08/31 04:03:14;;;;;;;15.23;6.10;;;;;;;12.80;100.00;101143.53;4993713;28;20185;-72
2021/08/31 04:05:39;;;;;;;11.77;6.23;;;;;;;12.74;100.00;101134.03;4992641;28;20206;-72
2021/08/31 04:08:05;;;;;;;14.60;6.90;;;;;;;12.75;100.00;101140.25;4992711;28;20229;-72
2021/08/31 04:10:30;;;;;;;8.53;6.10;;;;;;;12.70;100.00;101132.50;4976254;28;20197;-72
2021/08/31 04:12:55;;;;;;;10.23;6.33;;;;;;;12.63;100.00;101133.75;4976246;28;20181;-70
2021/08/31 04:15:20;;;;;;;8.83;6.77;;;;;;;12.67;100.00;101137.16;4993573;28;20231;-71
2021/08/31 04:17:46;;;;;;;10.07;6.10;;;;;;;12.66;100.00;101144.34;4993374;28;20201;-72
2021/08/31 04:20:12;;;;;;;11.33;6.90;;;;;;;12.62;100.00;101152.59;4992337;28;20196;-72
2021/08/31 04:22:37;;;;;;;10.20;6.93;;;;;;;12.60;100.00;101152.69;4992241;28;20185;-73
2021/08/31 04:25:03;;;;;;;10.27;6.67;;;;;;;12.58;100.00;101149.22;4976015;28;20247;-72
2021/08/31 04:27:29;;;;;;;9.43;6.57;;;;;;;12.60;100.00;101165.22;4992222;28;20197;-71
2021/08/31 04:29:54;;;;;;;8.73;6.27;;;;;;;12.63;100.00;101152.50;4992459;28;20185;-70
2021/08/31 04:32:19;;;;;;;11.13;6.97;;;;;;;12.63;100.00;101157.84;4992168;28;20216;-70
2021/08/31 04:34:45;;;;;;;8.67;6.60;;;;;;;12.66;100.00;101160.41;4976334;28;20671;-71
2021/08/31 04:37:10;;;;;;;8.13;6.00;;;;;;;12.68;100.00;101165.66;4975543;28;20221;-72
2021/08/31 04:39:35;;;;;;;12.93;6.67;;;;;;;12.70;100.00;101166.44;4992442;28;20607;-71
2021/08/31 04:42:05;;;;;;;8.30;6.70;;;;;;;12.69;100.00;101170.94;4976200;28;20181;-71
2021/08/31 04:44:30;;;;;;;9.87;7.00;;;;;;;12.69;100.00;101165.56;4960327;28;20177;-72
2021/08/31 04:46:56;;;;;;;10.37;6.20;;;;;;;12.73;100.00;101172.50;4993470;28;20178;-71
2021/08/31 04:49:21;;;;;;;9.67;6.80;;;;;;;12.72;100.00;101165.41;4992000;28;20198;-73
2021/08/31 04:51:46;;;;;;;8.93;6.10;;;;;;;12.74;100.00;101165.31;4992134;28;20745;-72
2021/08/31 04:54:12;;;;;;;8.60;6.30;;;;;;;12.73;100.00;101169.81;4975921;28;20177;-72
2021/08/31 04:56:37;;;;;;;12.17;6.17;;;;;;;12.75;100.00;101175.94;4992172;28;20177;-72
2021/08/31 04:59:02;;;;;;;9.03;6.20;;;;;;;12.74;100.00;101166.19;4992850;28;20201;-71
2021/08/31 05:01:28;;;;;;;9.73;6.50;;;;;;;12.77;100.00;101174.03;4963412;28;20543;-71
2021/08/31 05:03:53;;;;;;;9.53;6.47;;;;;;;12.79;100.00;101173.94;4995818;28;20220;-68
2021/08/31 05:06:18;;;;;;;8.10;5.80;;;;;;;12.78;100.00;101181.13;4979400;28;20185;-72
2021/08/31 05:08:43;;;;;;;10.30;6.80;;;;;;;12.81;100.00;101180.09;4995670;28;20572;-71
2021/08/31 05:11:09;;;;;;;10.80;6.17;;;;;;;12.83;100.00;101179.03;4997130;28;20282;-72
2021/08/31 05:13:39;;;;;;;10.37;5.80;;;;;;;12.88;100.00;101175.22;4997087;28;20181;-71
2021/08/31 05:16:05;;;;;;;11.97;5.73;;;;;;;12.86;100.00;101182.50;4997051;28;20249;-70
2021/08/31 05:18:32;;;;;;;13.23;6.50;;;;;;;12.93;100.00;101183.88;4995814;28;20197;-67
2021/08/31 05:20:57;;;;;;;13.53;6.03;;;;;;;12.92;100.00;101176.78;4979202;28;20212;-65
2021/08/31 05:23:23;;;;;;;11.40;6.00;;;;;;;13.00;100.00;101183.41;4995445;28;20205;-65
2021/08/31 05:25:48;;;;;;;9.37;5.97;;;;;;;13.02;100.00;101175.31;4979028;28;20186;-66
2021/08/31 05:28:13;;;;;;;9.70;5.80;;;;;;;13.07;100.00;101181.28;4979027;28;20206;-66
2021/08/31 05:30:39;;;;;;;7.03;4.67;;;;;;;13.05;100.00;101184.06;4995285;28;20264;-66
2021/08/31 05:33:04;;;;;;;12.20;6.00;;;;;;;13.06;100.00;101185.78;4978844;28;20244;-67
2021/08/31 05:35:29;;;;;;;9.60;6.27;;;;;;;13.13;100.00;101187.16;4996433;28;20635;-65
2021/08/31 05:37:54;;;;;;;7.93;5.77;;;;;;;13.17;100.00;101186.97;4996756;28;20589;-66
2021/08/31 05:40:21;;;;;;;7.90;5.60;;;;;;;13.23;100.00;101187.50;4995899;28;20181;-66
2021/08/31 05:42:47;;;;;;;10.57;6.37;;;;;;;13.29;100.00;101187.13;4995211;28;20184;-66
2021/08/31 05:45:12;;;;;;;8.63;6.17;;;;;;;13.33;100.00;101194.03;4978715;28;20174;-64
2021/08/31 05:47:38;;;;;;;10.70;6.40;;;;;;;13.34;100.00;101192.22;4994896;28;20205;-67
2021/08/31 05:50:04;;;;;;;10.00;5.53;;;;;;;13.39;100.00;101199.06;4995431;28;20182;-75
2021/08/31 05:52:29;;;;;;;11.30;6.17;;;;;;;13.49;100.00;101195.84;4979117;28;20258;-75
2021/08/31 05:54:54;;;;;;;9.23;5.70;;;;;;;13.47;100.00;101181.66;4978880;28;20340;-76
2021/08/31 05:57:20;;;;;;;10.57;6.03;;;;;;;13.45;100.00;101192.47;4995706;28;20184;-76
2021/08/31 05:59:45;;;;;;;11.80;6.20;;;;;;;13.50;100.00;101190.38;4978959;28;20182;-75
2021/08/31 06:02:10;;;;;;;8.73;6.50;;;;;;;13.51;100.00;101189.44;4994977;28;20181;-75
2021/08/31 06:04:39;;;;;;;7.93;6.03;;;;;;;13.55;100.00;101188.28;4978708;28;20610;-75
2021/08/31 06:07:06;;;;;;;7.53;5.60;;;;;;;13.58;100.00;101201.50;4994667;28;20178;-75
2021/08/31 06:09:31;;;;;;;7.90;5.70;;;;;;;13.66;100.00;101195.69;4995212;28;20177;-75
2021/08/31 06:11:58;;;;;;;9.90;5.53;;;;;;;13.66;100.00;101190.31;4994290;28;20197;-75
2021/08/31 06:14:23;;;;;;;9.70;5.80;;;;;;;13.68;100.00;101193.78;4994948;28;20543;-75
2021/08/31 06:16:49;;;;;;;8.63;6.40;;;;;;;13.69;100.00;101192.81;4995622;28;20177;-75
2021/08/31 06:19:14;;;;;;;8.00;5.57;;;;;;;13.72;100.00;101196.16;4994825;28;20579;-75
2021/08/31 06:21:40;;;;;;;13.27;6.33;;;;;;;13.68;100.00;101202.69;4978620;28;20178;-75
2021/08/31 06:24:05;;;;;;;10.23;4.37;;;;;;;13.64;100.00;101203.81;4978554;28;20204;-74
2021/08/31 06:26:30;;;;;;;8.23;4.83;;;;;;;13.65;100.00;101204.69;4978569;28;20186;-75
2021/08/31 06:28:56;;;;;;;10.23;6.07;;;;;;;13.67;100.00;101206.31;4978548;28;20240;-75
2021/08/31 06:31:21;;;;;;;7.43;5.33;;;;;;;13.72;100.00;101201.53;4994865;28;20194;-75
2021/08/31 06:33:46;;;;;;;8.40;4.80;;;;;;;13.77;100.00;101204.84;4978660;28;20540;-74
2021/08/31 06:36:19;;;;;;;7.70;5.97;;;;;;;13.86;100.00;101211.47;4995996;28;20177;-75
2021/08/31 06:38:45;;;;;;;10.30;5.77;;;;;;;13.91;100.00;101203.13;4995366;28;20212;-76
2021/08/31 06:41:10;;;;;;;7.13;5.83;;;;;;;13.91;100.00;101212.03;4978673;28;20220;-75
2021/08/31 06:43:35;;;;;;;10.40;6.23;;;;;;;13.94;100.00;101201.13;4978410;28;20177;-76
2021/08/31 06:46:01;;;;;;;8.80;5.77;;;;;;;13.87;100.00;101204.28;4978178;28;20185;-75
2021/08/31 06:48:26;;;;;;;8.33;5.67;;;;;;;13.98;100.00;101212.53;4977920;28;20205;-75
2021/08/31 06:50:52;;;;;;;10.33;5.77;;;;;;;14.03;100.00;101213.09;4994140;28;20276;-75
2021/08/31 06:53:17;;;;;;;10.80;5.97;;;;;;;13.99;100.00;101215.09;4983545;28;20189;-75
2021/08/31 06:55:42;;;;;;;7.67;5.83;;;;;;;14.12;100.00;101204.47;4986637;28;20209;-76
2021/08/31 06:58:09;;;;;;;10.67;5.70;;;;;;;14.12;100.00;101217.03;4986592;28;20198;-75
2021/08/31 07:00:34;;;;;;;11.70;5.00;;;;;;;14.09;100.00;101216.25;4979566;28;20165;-75
2021/08/31 07:03:00;;;;;;;9.53;4.87;;;;;;;14.07;100.00;101220.88;4978259;28;20176;-75
2021/08/31 07:05:25;;;;;;;6.10;5.37;;;;;;;14.03;100.00;101227.38;4979077;28;20181;-74
2021/08/31 07:07:51;;;;;;;8.00;5.13;;;;;;;14.03;100.00;101234.56;4993942;28;20202;-75
2021/08/31 07:10:17;;;;;;;7.67;4.83;;;;;;;13.99;100.00;101233.03;4995264;28;20177;-75
2021/08/31 07:12:42;;;;;;;10.83;5.13;;;;;;;14.03;100.00;101226.50;4962323;28;20180;-75
2021/08/31 07:15:09;;;;;;;7.43;5.03;;;;;;;13.99;100.00;101228.53;4978017;28;20185;-75
2021/08/31 07:17:34;;;;;;;7.70;5.23;;;;;;;13.95;100.00;101227.00;4978076;28;20579;-75
2021/08/31 07:19:59;;;;;;;7.90;5.53;;;;;;;14.01;100.00;101231.97;4977813;28;20202;-75
2021/08/31 07:22:25;;;;;;;8.03;5.40;;;;;;;14.07;100.00;101228.91;4994020;28;20169;-75
2021/08/31 07:24:50;;;;;;;8.33;5.23;;;;;;;14.00;100.00;101232.94;4977773;28;20201;-75
2021/08/31 07:27:15;;;;;;;10.53;5.30;;;;;;;14.02;100.00;101230.16;4977763;28;20237;-75
2021/08/31 07:29:41;;;;;;;9.07;5.23;;;;;;;14.02;100.00;101231.03;4978147;28;20177;-75
2021/08/31 07:32:06;;;;;;;9.27;5.53;;;;;;;13.98;100.00;101239.34;4994479;28;20228;-75
2021/08/31 07:34:32;;;;;;;9.63;5.37;;;;;;;13.94;100.00;101229.78;4977737;28;20179;-75
2021/08/31 07:36:57;;;;;;;8.77;5.57;;;;;;;14.06;100.00;101242.44;4978108;28;20521;-76
2021/08/31 07:39:23;;;;;;;11.97;5.90;;;;;;;14.10;100.00;101252.03;4978975;28;20753;-73
2021/08/31 07:41:48;;;;;;;6.97;5.50;;;;;;;13.98;100.00;101252.78;4995371;28;20166;-73
2021/08/31 07:44:14;;;;;;;7.27;5.10;;;;;;;13.96;100.00;101252.00;4994493;28;20543;-73
2021/08/31 07:46:45;;;;;;;6.17;4.80;;;;;;;13.99;100.00;101270.59;4978575;28;20185;-73
2021/08/31 07:49:11;;;;;;;10.07;5.60;;;;;;;13.98;100.00;101266.19;4977531;28;20197;-73
2021/08/31 07:51:36;;;;;;;11.77;5.40;;;;;;;13.99;100.00;101266.09;4976991;28;20674;-74
2021/08/31 07:54:02;;;;;;;7.30;4.83;;;;;;;14.01;100.00;101266.00;4994825;28;20174;-73
2021/08/31 07:56:27;;;;;;;7.87;5.20;;;;;;;14.05;100.00;101264.84;4977385;28;20181;-73
2021/08/31 07:58:52;;;;;;;6.97;4.73;;;;;;;14.15;100.00;101267.88;4976754;28;20201;-72
2021/08/31 08:01:17;;;;;;;6.80;4.70;;;;;;;14.17;100.00;101276.69;4976909;28;20173;-74
2021/08/31 08:03:43;;;;;;;10.60;4.90;;;;;;;14.21;100.00;101275.53;4998420;28;20174;-73
2021/08/31 08:06:08;;;;;;;7.77;5.17;;;;;;;14.19;100.00;101274.78;4980147;28;20638;-73
2021/08/31 08:08:33;;;;;;;6.83;4.63;;;;;;;14.18;100.00;101276.59;4994227;28;20197;-73
2021/08/31 08:10:59;;;;;;;9.97;4.73;;;;;;;14.23;100.00;101277.19;4978438;28;20197;-71
2021/08/31 08:13:24;;;;;;;25.03;6.77;;;;;;;14.35;100.00;101276.41;4994476;28;20268;-74
2021/08/31 08:15:49;;;;;;;6.40;4.67;;;;;;;14.45;100.00;101282.09;4994521;28;20178;-73
2021/08/31 08:18:15;;;;;;;7.37;4.30;;;;;;;14.32;100.00;101291.84;4976417;28;20625;-73
2021/08/31 08:20:43;;;;;;;10.77;5.13;;;;;;;14.39;100.00;101291.38;4976650;28;20278;-72
2021/08/31 08:23:09;;;;;;;8.13;5.03;;;;;;;14.33;100.00;101289.06;4976473;28;20189;-73
2021/08/31 08:25:34;;;;;;;11.67;5.73;;;;;;;14.38;100.00;101286.09;4961235;28;20182;-72
2021/08/31 08:28:00;;;;;;;8.07;4.57;;;;;;;14.37;99.95;101284.38;4994343;28;20209;-73
2021/08/31 08:30:25;;;;;;;9.17;4.40;;;;;;;14.33;99.76;101285.53;4993035;28;20220;-72
2021/08/31 08:32:50;;;;;;;7.03;4.60;;;;;;;14.37;99.82;101279.00;4976099;28;20594;-72
2021/08/31 08:35:16;;;;;;;7.50;4.27;;;;;;;14.27;99.49;101281.41;4992138;28;20224;-73
2021/08/31 08:37:41;;;;;;;7.13;4.53;;;;;;;14.36;99.65;101293.38;4992148;28;20204;-73
2021/08/31 08:40:07;;;;;;;9.57;4.83;;;;;;;14.44;99.57;101291.13;4992308;28;20220;-73
2021/08/31 08:42:32;;;;;;;6.60;4.43;;;;;;;14.63;99.08;101285.50;4992266;28;20263;-74
2021/08/31 08:44:58;;;;;;;8.90;4.80;;;;;;;14.47;98.94;101284.69;4995136;28;20543;-73
2021/08/31 08:47:23;;;;;;;12.83;4.53;;;;;;;14.44;98.81;101285.75;4993224;28;20636;-73
2021/08/31 08:49:49;;;;;;;10.07;3.90;;;;;;;14.38;97.80;101281.59;4994429;28;20184;-74
2021/08/31 08:52:15;;;;;;;10.20;4.70;;;;;;;14.48;97.87;101284.59;4992557;28;20284;-73
2021/08/31 08:54:41;;;;;;;8.20;4.57;;;;;;;14.63;96.97;101289.03;4992204;28;20732;-75
2021/08/31 08:57:06;;;;;;;7.60;4.53;;;;;;;14.73;96.65;101288.44;4975903;28;20184;-74
2021/08/31 08:59:32;;;;;;;7.90;4.73;;;;;;;14.77;96.50;101292.66;4997581;28;20260;-73
2021/08/31 09:01:57;;;;;;;5.60;4.30;;;;;;;14.73;95.12;101291.13;4992522;28;20225;-73
2021/08/31 09:04:46;;;;;;;9.80;5.00;;;;;;;14.76;96.12;101297.19;4976285;28;20558;-73
2021/08/31 09:07:23;;;;;;;6.60;4.43;;;;;;;14.85;96.07;101293.91;4977997;28;20170;-72
2021/08/31 09:10:11;;;;;;;7.93;4.73;;;;;;;15.10;94.90;101290.53;4976036;28;20188;-75
2021/08/31 09:12:37;;;;;;;8.33;4.57;;;;;;;15.45;92.24;101300.81;4994624;28;20174;-73
2021/08/31 09:15:30;;;;;;;13.97;5.30;;;;;;;15.53;92.15;101293.97;4992040;28;20181;-73
2021/08/31 09:18:04;;;;;;;7.53;4.70;;;;;;;15.90;90.44;101305.84;4992098;28;20197;-73
2021/08/31 09:20:47;;;;;;;8.33;4.70;;;;;;;16.05;88.95;101309.34;4993328;28;20212;-73
2021/08/31 09:23:21;;;;;;;6.70;4.60;;;;;;;15.85;88.66;101310.69;4976509;28;20197;-74
2021/08/31 09:25:48;;;;;;;7.27;4.20;;;;;;;15.67;88.86;101308.38;4992073;28;20161;-72
2021/08/31 09:28:22;;;;;;;8.33;4.27;;;;;;;15.82;88.74;101304.66;4992000;28;20232;-76
2021/08/31 09:31:02;;;;;;;11.00;6.67;;;;;;;15.93;88.85;101315.53;4975731;28;20193;-73
2021/08/31 09:33:30;;;;;;;8.17;4.17;;;;;;;16.10;87.58;101309.03;4975477;28;20182;-74
2021/08/31 09:36:13;;;;;;;8.10;4.47;;;;;;;15.78;87.42;101308.50;4991777;28;20658;-73
2021/08/31 09:38:53;;;;;;;5.30;3.97;;;;;;;15.79;87.07;101312.94;4991820;28;20586;-73
2021/08/31 09:41:24;;;;;;;5.57;4.00;;;;;;;15.82;86.96;101313.56;4976237;28;20169;-73
2021/08/31 09:43:50;;;;;;;6.70;4.17;;;;;;;15.98;86.61;101310.69;4993575;28;20269;-74
2021/08/31 09:46:15;;;;;;;6.80;4.43;;;;;;;16.42;84.60;101314.88;4992657;28;20643;-73
2021/08/31 09:48:41;;;;;;;5.97;4.17;;;;;;;16.59;84.84;101311.84;4979126;28;20193;-74
2021/08/31 09:51:11;;;;;;;7.87;4.07;;;;;;;17.08;83.60;101314.63;4963045;28;20225;-73
2021/08/31 09:53:36;;;;;;;5.33;4.27;;;;;;;17.21;81.56;101313.75;4995462;28;20170;-73
2021/08/31 09:56:01;;;;;;;6.07;4.00;;;;;;;17.09;79.06;101316.34;4979004;28;20578;-75
2021/08/31 09:58:28;;;;;;;6.87;4.53;;;;;;;17.14;79.87;101319.59;4978817;28;20202;-75
2021/08/31 10:00:54;;;;;;;6.13;3.80;;;;;;;16.96;79.42;101326.31;4995046;28;20169;-72
2021/08/31 10:03:20;;;;;;;6.87;3.80;;;;;;;16.70;79.70;101305.72;4978637;28;20233;-73
2021/08/31 10:05:47;;;;;;;7.27;4.30;;;;;;;16.91;79.62;101308.75;4978748;28;20178;-73
2021/08/31 10:08:14;;;;;;;6.67;4.23;;;;;;;16.85;78.14;101307.34;4995104;28;20675;-72
2021/08/31 10:10:44;;;;;;;6.63;3.83;;;;;;;16.62;77.80;101310.78;4994740;28;20671;-73
2021/08/31 10:13:14;;;;;;;7.73;4.63;;;;;;;16.75;78.37;101314.38;4978537;28;20165;-71
2021/08/31 10:15:47;;;;;;;6.27;4.23;;;;;;;17.14;78.31;101319.59;4995095;28;20154;-73
2021/08/31 10:18:19;;;;;;;7.20;4.50;;;;;;;17.25;78.51;101326.03;4994646;28;20197;-73
2021/08/31 10:20:50;;;;;;;5.73;3.67;;;;;;;16.80;75.07;101314.91;4994784;28;20177;-73
2021/08/31 10:23:24;;;;;;;8.83;3.53;;;;;;;17.01;72.93;101325.97;4978606;28;20174;-72
2021/08/31 10:25:49;;;;;;;4.50;3.00;;;;;;;17.00;71.09;101321.56;4994882;28;20169;-73
2021/08/31 10:28:28;;;;;;;10.30;3.57;;;;;;;17.04;71.47;101326.63;4994714;28;20193;-72
2021/08/31 10:30:57;;;;;;;5.20;3.30;;;;;;;16.95;72.59;101324.59;4978331;28;20190;-74
2021/08/31 10:33:31;;;;;;;6.90;3.70;;;;;;;16.95;72.93;101332.69;4995750;28;20173;-73
2021/08/31 10:35:57;;;;;;;4.90;3.20;;;;;;;17.48;71.76;101333.31;4978068;28;20180;-73
2021/08/31 10:38:39;;;;;;;7.17;3.30;;;;;;;17.48;71.73;101325.22;4978090;28;20209;-73
2021/08/31 10:41:44;;;;;;;6.37;3.40;;;;;;;17.78;71.00;101331.03;4978069;28;20174;-73
2021/08/31 10:44:15;;;;;;;6.80;3.57;;;;;;;17.74;69.64;101332.25;4995888;28;20162;-71
2021/08/31 10:46:55;;;;;;;5.20;2.87;;;;;;;17.26;69.31;101334.03;4978346;28;20178;-73
2021/08/31 10:49:21;;;;;;;5.33;2.93;;;;;;;17.39;68.81;101334.84;4978002;28;20240;-74
2021/08/31 10:52:05;;;;;;;4.27;2.90;;;;;;;17.85;67.25;101342.28;4977685;28;20229;-73
2021/08/31 10:54:46;;;;;;;6.07;3.00;;;;;;;17.59;65.64;101322.59;4994037;28;20169;-73
2021/08/31 10:57:41;;;;;;;5.53;3.50;;;;;;;17.65;67.41;101345.56;4993724;28;20228;-73
2021/08/31 11:00:15;;;;;;;9.83;3.10;;;;;;;17.57;68.29;101351.53;4977961;28;20264;-74
2021/08/31 11:02:49;;;;;;;7.57;3.47;;;;;;;17.58;67.41;101355.94;4995355;28;20189;-73
2021/08/31 11:05:26;;;;;;;6.27;3.83;;;;;;;18.11;67.32;101343.84;4994942;28;20170;-74
2021/08/31 11:07:54;;;;;;;5.50;3.50;;;;;;;18.47;66.73;101338.41;4977976;28;20288;-74
2021/08/31 11:10:24;;;;;;;5.47;3.50;;;;;;;19.92;63.03;101362.75;4977770;28;20255;-74
2021/08/31 11:12:51;;;;;;;5.80;2.80;;;;;;;19.17;60.63;101357.19;4978294;28;20649;-74
2021/08/31 11:15:23;;;;;;;4.73;3.20;;;;;;;18.71;63.89;101363.56;4994460;28;20173;-74
2021/08/31 11:17:51;;;;;;;7.17;3.03;;;;;;;18.33;64.57;101359.28;4993792;28;20193;-73